createdAt,value
2019-06-10T00:00:17.950Z,47.18
2019-06-10T00:02:53.694Z,47.20
2019-06-10T00:06:32.517Z,47.06
2019-06-10T00:08:50.650Z,47.06
2019-06-10T00:11:24.144Z,46.94
2019-06-10T00:13:57.080Z,46.93
2019-06-10T00:16:31.406Z,46.72
2019-06-10T00:19:09.556Z,46.66
2019-06-10T00:21:42.301Z,46.72
2019-06-10T00:24:15.647Z,46.49
2019-06-10T00:26:50.871Z,46.32
2019-06-10T00:29:23.253Z,46.28
2019-06-10T00:31:58.269Z,46.07
2019-06-10T00:34:35.012Z,46.19
2019-06-10T00:37:09.221Z,46.16
2019-06-10T00:39:41.615Z,46.26
2019-06-10T00:42:15.424Z,46.36
2019-06-10T00:44:50.786Z,46.15
2019-06-10T00:47:24.751Z,46.18
2019-06-10T00:49:57.755Z,46.28
2019-06-10T00:52:31.054Z,46.86
2019-06-10T00:55:04.871Z,46.19
2019-06-10T00:57:41.700Z,46.26
2019-06-10T01:00:25.198Z,46.18
2019-06-10T01:02:51.793Z,46.11
2019-06-10T01:05:25.275Z,46.20
2019-06-10T01:07:58.346Z,46.22
2019-06-10T01:10:31.728Z,46.13
2019-06-10T01:13:05.114Z,46.38
2019-06-10T01:15:38.396Z,46.29
2019-06-10T01:18:28.686Z,46.44
2019-06-10T01:20:46.236Z,46.48
2019-06-10T01:23:21.650Z,46.54
2019-06-10T01:25:57.067Z,46.47
2019-06-10T01:28:31.374Z,46.63
2019-06-10T01:31:12.114Z,46.74
2019-06-10T01:33:44.412Z,46.69
2019-06-10T01:36:21.075Z,46.84
2019-06-10T01:38:55.541Z,46.65
2019-06-10T01:41:30.590Z,46.93
2019-06-10T01:44:03.739Z,46.91
2019-06-10T01:46:36.703Z,46.92
2019-06-10T01:49:12.914Z,46.96
2019-06-10T01:51:51.553Z,47.08
2019-06-10T01:54:25.183Z,47.11
2019-06-10T01:56:58.103Z,46.97
2019-06-10T01:59:31.347Z,47.11
2019-06-10T02:02:09.793Z,47.05
2019-06-10T02:04:43.227Z,47.17
2019-06-10T02:07:18.464Z,47.31
2019-06-10T02:09:51.816Z,47.30
2019-06-10T02:12:24.884Z,47.39
2019-06-10T02:14:57.978Z,47.50
2019-06-10T02:17:31.458Z,47.50
2019-06-10T02:20:05.031Z,47.54
2019-06-10T02:22:40.951Z,47.56
2019-06-10T02:25:14.878Z,47.66
2019-06-10T02:27:50.634Z,47.88
2019-06-10T02:30:38.969Z,49.23
2019-06-10T02:32:57.623Z,50.00
2019-06-10T02:35:43.992Z,50.47
2019-06-10T02:38:05.348Z,50.21
2019-06-10T02:40:38.234Z,50.03
2019-06-10T02:43:16.065Z,49.90
2019-06-10T02:45:47.493Z,49.75
2019-06-10T02:48:27.068Z,49.86
2019-06-10T02:51:30.781Z,49.88
2019-06-10T02:54:05.114Z,50.03
2019-06-10T02:56:38.323Z,50.25
2019-06-10T02:59:13.285Z,50.43
2019-06-10T03:01:46.092Z,50.51
2019-06-10T03:04:22.157Z,50.65
2019-06-10T03:06:54.414Z,51.02
2019-06-10T03:09:31.834Z,51.08
2019-06-10T03:12:04.814Z,51.13
2019-06-10T03:14:37.156Z,51.42
2019-06-10T03:17:13.824Z,51.71
2019-06-10T03:19:50.517Z,51.87
2019-06-10T03:22:22.977Z,51.98
2019-06-10T03:24:56.005Z,52.23
2019-06-10T03:27:29.117Z,52.16
2019-06-10T03:30:14.713Z,52.30
2019-06-10T03:32:42.632Z,52.54
2019-06-10T03:35:13.252Z,52.76
2019-06-10T03:37:46.347Z,52.81
2019-06-10T03:40:20.529Z,53.06
2019-06-10T03:42:53.908Z,52.83
2019-06-10T03:45:28.396Z,53.36
2019-06-10T03:48:03.662Z,53.44
2019-06-10T03:50:36.382Z,53.59
2019-06-10T03:53:09.381Z,53.87
2019-06-10T03:55:42.451Z,54.03
2019-06-10T03:58:15.560Z,54.20
2019-06-10T04:00:48.587Z,54.36
2019-06-10T04:03:24.279Z,54.48
2019-06-10T04:05:56.229Z,54.58
2019-06-10T04:08:32.931Z,54.79
2019-06-10T04:11:05.565Z,54.91
2019-06-10T04:13:38.421Z,55.00
2019-06-10T04:16:13.009Z,55.03
2019-06-10T04:18:45.962Z,55.22
2019-06-10T04:21:20.327Z,55.41
2019-06-10T04:23:53.431Z,55.46
2019-06-10T04:26:28.198Z,55.61
2019-06-10T04:29:02.464Z,55.66
2019-06-10T04:31:36.577Z,55.92
2019-06-10T04:34:09.471Z,56.38
2019-06-10T04:36:42.537Z,56.07
2019-06-10T04:39:15.449Z,55.98
2019-06-10T04:41:48.366Z,56.25
2019-06-10T04:44:23.545Z,56.22
2019-06-10T04:46:55.841Z,56.32
2019-06-10T04:49:29.825Z,56.52
2019-06-10T04:52:03.250Z,56.62
2019-06-10T04:54:36.329Z,56.66
2019-06-10T04:57:09.470Z,56.94
2019-06-10T04:59:42.938Z,57.16
2019-06-10T05:02:15.792Z,57.15
2019-06-10T05:04:49.657Z,57.38
2019-06-10T05:07:24.042Z,57.50
2019-06-10T05:09:57.345Z,57.21
2019-06-10T05:12:32.326Z,57.23
2019-06-10T05:15:04.794Z,57.27
2019-06-10T05:17:37.625Z,57.42
2019-06-10T05:20:12.530Z,57.11
2019-06-10T05:22:45.606Z,57.16
2019-06-10T05:25:19.742Z,57.20
2019-06-10T05:27:54.055Z,57.34
2019-06-10T05:30:28.183Z,57.14
2019-06-10T05:33:02.955Z,57.25
2019-06-10T05:35:36.146Z,57.27
2019-06-10T05:38:09.044Z,57.30
2019-06-10T05:40:42.749Z,57.35
2019-06-10T05:43:15.864Z,57.50
2019-06-10T05:45:48.839Z,57.50
2019-06-10T05:48:22.672Z,57.78
2019-06-10T05:51:02.598Z,57.75
2019-06-10T05:53:33.577Z,57.72
2019-06-10T05:56:05.648Z,57.83
2019-06-10T05:58:38.478Z,57.80
2019-06-10T06:01:13.222Z,58.05
2019-06-10T06:03:46.147Z,58.34
2019-06-10T06:06:19.115Z,58.14
2019-06-10T06:08:53.389Z,58.09
2019-06-10T06:11:27.359Z,58.00
2019-06-10T06:14:02.755Z,57.94
2019-06-10T06:16:36.247Z,57.58
2019-06-10T06:19:09.399Z,57.35
2019-06-10T06:21:47.417Z,57.00
2019-06-10T06:24:16.856Z,56.57
2019-06-10T06:26:49.918Z,56.16
2019-06-10T06:29:22.781Z,55.59
2019-06-10T06:31:55.730Z,55.43
2019-06-10T06:34:28.837Z,55.19
2019-06-10T06:37:02.238Z,54.87
2019-06-10T06:39:36.695Z,54.85
2019-06-10T06:42:12.558Z,54.22
2019-06-10T06:44:44.840Z,53.82
2019-06-10T06:47:17.775Z,53.70
2019-06-10T06:49:53.031Z,53.63
2019-06-10T06:52:46.407Z,53.56
2019-06-10T06:55:02.464Z,53.50
2019-06-10T06:57:36.762Z,53.32
2019-06-10T07:00:35.331Z,53.24
2019-06-10T07:02:46.265Z,52.55
2019-06-10T07:05:19.161Z,52.02
2019-06-10T07:07:52.905Z,51.95
2019-06-10T07:10:26.082Z,52.11
2019-06-10T07:13:02.871Z,52.01
2019-06-10T07:15:48.062Z,51.82
2019-06-10T07:18:23.156Z,51.90
2019-06-10T07:20:55.637Z,51.72
2019-06-10T07:23:28.548Z,51.73
2019-06-10T07:26:02.286Z,51.77
2019-06-10T07:28:37.490Z,52.22
2019-06-10T07:31:20.882Z,52.45
2019-06-10T07:33:47.250Z,52.61
2019-06-10T07:36:19.922Z,52.70
2019-06-10T07:38:53.934Z,53.21
2019-06-10T07:41:27.062Z,53.17
2019-06-10T07:43:59.908Z,53.35
2019-06-10T07:46:33.592Z,53.41
2019-06-10T07:49:07.565Z,53.28
2019-06-10T07:51:42.131Z,53.49
2019-06-10T07:54:15.418Z,53.54
2019-06-10T07:56:50.570Z,53.69
2019-06-10T07:59:23.362Z,53.80
2019-06-10T08:01:56.616Z,53.33
2019-06-10T08:04:29.694Z,53.49
2019-06-10T08:07:03.331Z,52.87
2019-06-10T08:09:37.340Z,52.56
2019-06-10T08:12:12.612Z,52.47
2019-06-10T08:14:45.777Z,52.10
2019-06-10T08:17:18.744Z,51.38
2019-06-10T08:19:54.062Z,51.44
2019-06-10T08:22:33.497Z,51.13
2019-06-10T08:25:04.945Z,51.15
2019-06-10T08:27:36.607Z,50.20
2019-06-10T08:30:18.593Z,50.17
2019-06-10T08:32:47.156Z,48.77
2019-06-10T08:35:35.003Z,48.73
2019-06-10T08:37:54.257Z,48.57
2019-06-10T08:40:27.458Z,48.05
2019-06-10T08:43:04.016Z,47.14
2019-06-10T08:45:36.887Z,47.00
2019-06-10T08:48:09.857Z,47.16
2019-06-10T08:50:46.612Z,47.28
2019-06-10T08:53:18.193Z,47.10
2019-06-10T08:55:53.470Z,47.30
2019-06-10T08:58:25.874Z,47.04
2019-06-10T09:00:59.122Z,47.36
2019-06-10T09:03:32.507Z,46.99
2019-06-10T09:06:05.615Z,47.11
2019-06-10T09:08:40.854Z,47.31
2019-06-10T09:11:13.275Z,47.28
2019-06-10T09:13:48.062Z,46.74
2019-06-10T09:16:22.903Z,46.49
2019-06-10T09:18:55.646Z,46.68
2019-06-10T09:21:28.515Z,46.44
2019-06-10T09:24:03.931Z,46.28
2019-06-10T09:26:36.312Z,46.08
2019-06-10T09:29:09.168Z,46.00
2019-06-10T09:31:46.718Z,45.51
2019-06-10T09:34:16.511Z,45.13
2019-06-10T09:36:54.059Z,44.43
2019-06-10T09:39:24.100Z,44.37
2019-06-10T09:42:02.664Z,44.80
2019-06-10T09:44:33.362Z,43.71
2019-06-10T09:47:07.037Z,44.00
2019-06-10T09:49:45.334Z,42.83
2019-06-10T09:52:15.918Z,42.12
2019-06-10T09:54:55.706Z,41.76
2019-06-10T09:57:23.962Z,42.73
2019-06-10T09:59:56.890Z,42.62
2019-06-10T10:02:29.832Z,42.25
2019-06-10T10:05:02.958Z,40.96
2019-06-10T10:07:36.627Z,40.68
2019-06-10T10:10:12.866Z,41.17
2019-06-10T10:12:47.556Z,40.65
2019-06-10T10:15:27.465Z,40.51
2019-06-10T10:17:56.392Z,41.15
2019-06-10T10:20:29.733Z,41.51
2019-06-10T10:23:02.850Z,41.22
2019-06-10T10:25:35.777Z,41.38
2019-06-10T10:28:08.896Z,41.96
2019-06-10T10:30:45.527Z,42.12
2019-06-10T10:33:18.973Z,41.72
2019-06-10T10:35:52.643Z,41.94
2019-06-10T10:38:25.530Z,41.48
2019-06-10T10:40:59.344Z,40.83
2019-06-10T10:43:36.954Z,41.10
2019-06-10T10:46:07.352Z,41.51
2019-06-10T10:48:40.313Z,41.50
2019-06-10T10:51:13.434Z,41.77
2019-06-10T10:53:50.567Z,42.22
2019-06-10T10:56:22.331Z,42.15
2019-06-10T10:58:58.549Z,42.30
2019-06-10T11:01:33.376Z,42.41
2019-06-10T11:04:06.509Z,42.19
2019-06-10T11:06:39.392Z,41.75
2019-06-10T11:09:12.982Z,41.50
2019-06-10T11:11:47.213Z,41.85
2019-06-10T11:14:22.862Z,42.49
2019-06-10T11:16:57.050Z,42.75
2019-06-10T11:19:29.431Z,42.97
2019-06-10T11:22:03.012Z,43.48
2019-06-10T11:24:41.097Z,43.06
2019-06-10T11:27:12.751Z,43.29
2019-06-10T11:29:46.155Z,41.04
2019-06-10T11:32:19.169Z,40.17
2019-06-10T11:34:56.548Z,39.76
2019-06-10T11:37:27.814Z,40.44
2019-06-10T11:40:02.914Z,39.08
2019-06-10T11:42:35.360Z,38.99
2019-06-10T11:45:08.822Z,39.00
2019-06-10T11:47:43.138Z,38.80
2019-06-10T11:50:17.529Z,38.62
2019-06-10T11:52:55.435Z,38.07
2019-06-10T11:55:25.233Z,38.43
2019-06-10T11:57:59.326Z,37.79
2019-06-10T12:00:33.318Z,37.38
2019-06-10T12:03:07.850Z,37.00
2019-06-10T12:05:40.847Z,37.15
2019-06-10T12:08:13.741Z,36.80
2019-06-10T12:10:46.664Z,36.32
2019-06-10T12:13:22.462Z,35.87
2019-06-10T12:16:34.942Z,35.51
2019-06-10T12:18:29.057Z,34.79
2019-06-10T12:21:03.681Z,34.65
2019-06-10T12:23:36.906Z,35.19
2019-06-10T12:26:09.963Z,34.68
2019-06-10T12:28:43.313Z,33.99
2019-06-10T12:31:16.399Z,33.41
2019-06-10T12:33:51.142Z,33.65
2019-06-10T12:36:24.537Z,33.68
2019-06-10T12:39:02.345Z,33.92
2019-06-10T12:41:33.945Z,34.31
2019-06-10T12:44:09.062Z,34.12
2019-06-10T12:46:43.198Z,33.87
2019-06-10T12:49:18.489Z,34.22
2019-06-10T12:51:52.894Z,35.01
2019-06-10T12:54:27.403Z,35.23
2019-06-10T12:57:00.687Z,34.07
2019-06-10T12:59:34.647Z,34.40
2019-06-10T13:02:19.028Z,33.99
2019-06-10T13:04:45.270Z,33.74
2019-06-10T13:07:19.587Z,33.38
2019-06-10T13:09:57.784Z,33.08
2019-06-10T13:12:33.247Z,33.79
2019-06-10T13:15:08.907Z,34.41
2019-06-10T13:17:43.976Z,33.95
2019-06-10T13:20:16.913Z,33.76
2019-06-10T13:22:49.880Z,34.11
2019-06-10T13:25:24.385Z,34.31
2019-06-10T13:27:57.756Z,34.59
2019-06-10T13:30:34.169Z,34.34
2019-06-10T13:33:10.787Z,34.22
2019-06-10T13:35:41.747Z,34.32
2019-06-10T13:38:15.642Z,34.85
2019-06-10T13:40:48.616Z,35.08
2019-06-10T13:43:23.109Z,35.13
2019-06-10T13:45:56.387Z,34.01
2019-06-10T13:48:29.392Z,33.52
2019-06-10T13:51:08.263Z,33.89
2019-06-10T13:53:37.025Z,34.38
2019-06-10T13:56:37.027Z,34.10
2019-06-10T13:58:46.190Z,32.23
2019-06-10T14:01:21.910Z,32.00
2019-06-10T14:03:53.977Z,32.47
2019-06-10T14:06:44.592Z,33.44
2019-06-10T14:09:06.817Z,33.51
2019-06-10T14:11:38.500Z,32.61
2019-06-10T14:14:14.754Z,33.43
2019-06-10T14:16:46.275Z,33.34
2019-06-10T14:19:23.057Z,33.19
2019-06-10T14:21:55.291Z,33.68
2019-06-10T14:24:28.388Z,33.68
2019-06-10T14:27:04.255Z,33.25
2019-06-10T14:29:35.984Z,33.22
2019-06-10T14:32:09.243Z,33.59
2019-06-10T14:34:42.572Z,34.38
2019-06-10T14:37:29.663Z,34.57
2019-06-10T14:39:52.942Z,35.42
2019-06-10T14:42:26.046Z,35.86
2019-06-10T14:44:59.397Z,36.32
2019-06-10T14:47:32.568Z,35.95
2019-06-10T14:50:06.861Z,36.17
2019-06-10T14:52:39.936Z,36.54
2019-06-10T14:55:16.614Z,35.84
2019-06-10T14:57:48.074Z,35.59
2019-06-10T15:00:23.625Z,33.90
2019-06-10T15:02:56.478Z,33.90
2019-06-10T15:05:29.655Z,33.97
2019-06-10T15:08:03.299Z,33.76
2019-06-10T15:10:36.304Z,33.92
2019-06-10T15:13:09.725Z,33.90
2019-06-10T15:15:42.731Z,33.47
2019-06-10T15:18:18.023Z,33.66
2019-06-10T15:20:53.130Z,33.73
2019-06-10T15:23:25.324Z,34.16
2019-06-10T15:25:58.157Z,34.54
2019-06-10T15:28:31.142Z,35.04
2019-06-10T15:31:05.643Z,35.11
2019-06-10T15:33:38.750Z,35.54
2019-06-10T15:36:13.069Z,35.66
2019-06-10T15:38:46.624Z,35.87
2019-06-10T15:41:21.330Z,35.93
2019-06-10T15:43:54.206Z,35.74
2019-06-10T15:46:27.110Z,35.79
2019-06-10T15:49:02.343Z,36.02
2019-06-10T15:51:35.745Z,36.16
2019-06-10T15:54:10.686Z,36.05
2019-06-10T15:56:52.944Z,36.21
2019-06-10T15:59:23.310Z,36.33
2019-06-10T16:01:57.380Z,36.44
2019-06-10T16:04:34.875Z,36.60
2019-06-10T16:07:06.057Z,36.93
2019-06-10T16:09:38.997Z,37.32
2019-06-10T16:12:14.353Z,37.36
2019-06-10T16:14:46.588Z,37.15
2019-06-10T16:17:19.478Z,37.34
2019-06-10T16:19:53.153Z,37.73
2019-06-10T16:22:27.236Z,38.45
2019-06-10T16:25:00.228Z,38.95
2019-06-10T16:27:46.389Z,38.51
2019-06-10T16:30:08.821Z,39.32
2019-06-10T16:32:41.612Z,39.26
2019-06-10T16:35:14.816Z,39.66
2019-06-10T16:37:48.110Z,39.65
2019-06-10T16:40:21.795Z,39.75
2019-06-10T16:42:55.753Z,40.42
2019-06-10T16:45:30.834Z,40.48
2019-06-10T16:48:03.431Z,40.58
2019-06-10T16:50:36.338Z,40.68
2019-06-10T16:53:09.510Z,40.68
2019-06-10T16:55:43.516Z,41.07
2019-06-10T16:58:18.215Z,41.62
2019-06-10T17:00:52.438Z,41.87
2019-06-10T17:03:27.242Z,42.04
2019-06-10T17:06:02.508Z,42.16
2019-06-10T17:08:36.184Z,42.24
2019-06-10T17:11:13.067Z,42.45
2019-06-10T17:13:46.147Z,42.51
2019-06-10T17:16:20.892Z,42.66
2019-06-10T17:18:58.137Z,42.90
2019-06-10T17:21:34.707Z,42.87
2019-06-10T17:24:12.630Z,43.17
2019-06-10T17:26:44.217Z,43.43
2019-06-10T17:29:17.379Z,43.49
2019-06-10T17:31:53.148Z,43.85
2019-06-10T17:34:31.397Z,44.03
2019-06-10T17:37:04.528Z,44.17
2019-06-10T17:39:37.620Z,44.41
2019-06-10T17:42:16.814Z,44.50
2019-06-10T17:44:53.006Z,44.57
2019-06-10T17:47:27.748Z,44.48
2019-06-10T17:50:04.045Z,44.73
2019-06-10T17:52:39.019Z,44.97
2019-06-10T17:55:12.692Z,44.82
2019-06-10T17:57:50.483Z,45.02
2019-06-10T18:00:26.526Z,45.05
2019-06-10T18:03:03.721Z,45.17
2019-06-10T18:05:38.861Z,45.43
2019-06-10T18:08:13.090Z,45.54
2019-06-10T18:10:53.630Z,45.57
2019-06-10T18:13:30.082Z,45.52
2019-06-10T18:16:05.400Z,45.91
2019-06-10T18:18:38.777Z,45.95
2019-06-10T18:21:14.512Z,46.16
2019-06-10T18:23:55.747Z,46.26
2019-06-10T18:26:35.926Z,46.45
2019-06-10T18:29:09.529Z,46.61
2019-06-10T18:31:43.528Z,47.06
2019-06-10T18:34:16.954Z,47.07
2019-06-10T18:36:52.125Z,47.39
2019-06-10T18:39:27.732Z,47.49
2019-06-10T18:42:03.194Z,47.68
2019-06-10T18:44:37.551Z,47.71
2019-06-10T18:47:13.480Z,48.10
2019-06-10T18:49:46.767Z,48.00
2019-06-10T18:52:23.295Z,48.14
2019-06-10T18:54:57.633Z,48.47
2019-06-10T18:57:36.153Z,48.65
2019-06-10T19:00:14.688Z,48.74
2019-06-10T19:02:46.859Z,48.97
2019-06-10T19:05:24.274Z,49.20
2019-06-10T19:07:58.631Z,49.22
2019-06-10T19:10:35.277Z,49.34
2019-06-10T19:13:07.923Z,49.51
2019-06-10T19:15:44.537Z,49.77
2019-06-10T19:18:22.935Z,50.10
2019-06-10T19:21:03.827Z,50.46
2019-06-10T19:23:38.222Z,50.80
2019-06-10T19:26:13.471Z,50.90
2019-06-10T19:28:46.441Z,51.08
2019-06-10T19:31:19.687Z,51.32
2019-06-10T19:33:52.738Z,51.47
2019-06-10T19:36:25.732Z,51.93
2019-06-10T19:38:58.848Z,51.99
2019-06-10T19:41:35.741Z,52.07
2019-06-10T19:44:06.859Z,52.38
2019-06-10T19:46:39.843Z,52.24
2019-06-10T19:49:13.363Z,52.62
2019-06-10T19:51:47.708Z,52.81
2019-06-10T19:54:21.050Z,53.00
2019-06-10T19:56:55.732Z,53.15
2019-06-10T19:59:29.087Z,53.16
2019-06-10T20:02:03.355Z,53.30
2019-06-10T20:04:42.822Z,53.75
2019-06-10T20:07:16.954Z,55.19
2019-06-10T20:09:52.248Z,54.64
2019-06-10T20:12:25.255Z,54.38
2019-06-10T20:15:02.217Z,54.34
2019-06-10T20:17:33.428Z,54.45
2019-06-10T20:20:07.881Z,54.71
2019-06-10T20:22:45.478Z,54.93
2019-06-10T20:25:18.736Z,55.12
2019-06-10T20:27:52.374Z,55.15
2019-06-10T20:30:28.984Z,55.83
2019-06-10T20:33:03.406Z,55.42
2019-06-10T20:35:35.415Z,55.76
2019-06-10T20:38:13.087Z,55.90
2019-06-10T20:40:46.041Z,56.30
2019-06-10T20:43:22.280Z,56.33
2019-06-10T20:45:58.155Z,56.95
2019-06-10T20:48:29.840Z,57.52
2019-06-10T20:51:03.300Z,57.82
2019-06-10T20:53:38.066Z,58.37
2019-06-10T20:56:12.475Z,58.21
2019-06-10T20:58:46.792Z,58.78
2019-06-10T21:01:24.751Z,58.97
2019-06-10T21:03:55.239Z,59.31
2019-06-10T21:06:32.546Z,58.93
2019-06-10T21:09:08.368Z,59.07
2019-06-10T21:11:44.868Z,59.15
2019-06-10T21:14:16.386Z,59.37
2019-06-10T21:16:51.095Z,59.38
2019-06-10T21:19:23.946Z,59.70
2019-06-10T21:21:56.971Z,59.81
2019-06-10T21:24:32.216Z,59.78
2019-06-10T21:27:04.593Z,60.25
2019-06-10T21:29:37.500Z,60.43
2019-06-10T21:32:12.438Z,60.44
2019-06-10T21:34:46.568Z,60.42
2019-06-10T21:37:22.573Z,60.25
2019-06-10T21:39:55.600Z,60.33
2019-06-10T21:42:28.620Z,61.16
2019-06-10T21:45:03.467Z,61.45
2019-06-10T21:47:36.025Z,61.73
2019-06-10T21:50:09.323Z,61.90
2019-06-10T21:52:44.033Z,61.85
2019-06-10T21:55:16.897Z,61.94
2019-06-10T21:57:51.565Z,62.16
2019-06-10T22:00:29.760Z,62.14
2019-06-10T22:03:03.056Z,62.06
2019-06-10T22:05:36.029Z,62.33
2019-06-10T22:08:08.941Z,62.34
2019-06-10T22:10:44.209Z,62.52
2019-06-10T22:13:17.461Z,60.45
2019-06-10T22:15:53.443Z,51.58
2019-06-10T22:18:25.165Z,49.75
2019-06-10T22:20:58.184Z,52.03
2019-06-10T22:23:33.115Z,53.67
2019-06-10T22:26:06.329Z,54.78
2019-06-10T22:28:39.587Z,55.64
2019-06-10T22:31:22.362Z,56.25
2019-06-10T22:33:47.251Z,57.06
2019-06-10T22:36:20.214Z,57.46
2019-06-10T22:38:55.784Z,58.01
2019-06-10T22:41:27.883Z,58.71
2019-06-10T22:44:03.324Z,59.09
2019-06-10T22:46:35.645Z,59.62
2019-06-10T22:49:08.591Z,59.73
2019-06-10T22:51:42.837Z,60.11
2019-06-10T22:54:16.119Z,60.60
2019-06-10T22:56:49.426Z,60.86
2019-06-10T22:59:22.947Z,60.97
2019-06-10T23:01:56.976Z,61.36
2019-06-10T23:04:33.136Z,61.64
2019-06-10T23:07:05.455Z,62.16
2019-06-10T23:09:38.454Z,62.63
2019-06-10T23:12:12.036Z,59.11
2019-06-10T23:14:45.231Z,54.24
2019-06-10T23:17:18.167Z,55.46
2019-06-10T23:19:53.568Z,57.11
2019-06-10T23:22:25.672Z,58.29
2019-06-10T23:24:59.842Z,59.02
2019-06-10T23:27:33.622Z,59.42
2019-06-10T23:30:11.445Z,59.99
2019-06-10T23:32:42.340Z,60.40
2019-06-10T23:35:15.561Z,60.67
2019-06-10T23:37:48.780Z,60.87
2019-06-10T23:40:23.370Z,61.24
2019-06-10T23:42:57.183Z,61.65
2019-06-10T23:45:32.600Z,62.04
2019-06-10T23:48:05.198Z,62.29
2019-06-10T23:50:38.179Z,62.62
2019-06-10T23:53:13.246Z,60.45
2019-06-10T23:55:45.767Z,52.35
2019-06-10T23:58:21.932Z,50.87
